Terminal Aerodrome Forecast
Issued by NWS

Home | Current Version | Previous Version | Text Only | Print | Product List | Glossary On
Versions: 1 2 3 4 5 6 7 8 9 10 11 12 13 14
949
FTUS44 KTSA 300520
TAFMLC
TAF
KMLC 300520Z 3006/3106 VRB03KT P6SM FEW070 BKN250
     FM301400 21006KT P6SM SCT050 BKN250 PROB30 3016/3020 5SM -TSRA
      BKN035CB
     FM310200 15003KT P6SM BKN250=

USA.gov is the U.S. government's official web portal to all federal, state and local government web resources and services.